10°C Temp
10°C Dewpoint
100% Humidity
Temperature
8 KM/H
5 MPH
4 KTS
310°
North West

Wind Speed
Misty
Conditions
Pressure 1018.92 (hPa) - 30.09 (in)
Visibility 1.9 (mi) - 3.0 (km)

Current Conditions
LIMP
Location 40(km)
Metar :LIMP 081350Z 31004KT 290V350 3000 BR SCT050 10/10 Q1019
Sun 8th December 14:50 pm

Airport
  Metar Aviation API Data Provided by https://www.checkwx.com/ PHP scripts by weather34.com ©2019